sensor_id;sensor_type;location;lat;lon;timestamp;P1;durP1;ratioP1;P2;durP2;ratioP2
77571;SDS011;67214;47.454;18.966;2024-01-06T00:00:23;18.20;;;11.43;;
77571;SDS011;67214;47.454;18.966;2024-01-06T00:02:50;20.30;;;12.25;;
77571;SDS011;67214;47.454;18.966;2024-01-06T00:05:17;17.95;;;10.90;;
77571;SDS011;67214;47.454;18.966;2024-01-06T00:07:45;22.77;;;11.95;;
77571;SDS011;67214;47.454;18.966;2024-01-06T00:10:12;21.37;;;13.15;;
77571;SDS011;67214;47.454;18.966;2024-01-06T00:12:40;20.95;;;11.08;;
77571;SDS011;67214;47.454;18.966;2024-01-06T00:15:07;20.95;;;11.65;;
77571;SDS011;67214;47.454;18.966;2024-01-06T00:17:36;19.77;;;11.40;;
77571;SDS011;67214;47.454;18.966;2024-01-06T00:20:04;18.70;;;11.12;;
77571;SDS011;67214;47.454;18.966;2024-01-06T00:22:32;20.32;;;11.95;;
77571;SDS011;67214;47.454;18.966;2024-01-06T00:24:59;22.32;;;12.63;;
77571;SDS011;67214;47.454;18.966;2024-01-06T00:27:27;20.10;;;11.12;;
77571;SDS011;67214;47.454;18.966;2024-01-06T00:29:54;19.75;;;10.58;;
77571;SDS011;67214;47.454;18.966;2024-01-06T00:32:22;18.23;;;10.32;;
77571;SDS011;67214;47.454;18.966;2024-01-06T00:34:49;16.10;;;10.43;;
77571;SDS011;67214;47.454;18.966;2024-01-06T00:37:17;17.70;;;10.98;;
77571;SDS011;67214;47.454;18.966;2024-01-06T00:39:44;19.70;;;10.80;;
77571;SDS011;67214;47.454;18.966;2024-01-06T00:42:11;19.82;;;12.40;;
77571;SDS011;67214;47.454;18.966;2024-01-06T00:44:39;18.52;;;11.12;;
77571;SDS011;67214;47.454;18.966;2024-01-06T00:47:06;19.00;;;11.35;;
77571;SDS011;67214;47.454;18.966;2024-01-06T00:49:34;17.50;;;10.35;;
77571;SDS011;67214;47.454;18.966;2024-01-06T00:52:01;20.92;;;10.63;;
77571;SDS011;67214;47.454;18.966;2024-01-06T00:54:29;18.07;;;10.08;;
77571;SDS011;67214;47.454;18.966;2024-01-06T00:56:56;19.65;;;11.18;;
77571;SDS011;67214;47.454;18.966;2024-01-06T00:59:24;22.50;;;12.00;;
77571;SDS011;67214;47.454;18.966;2024-01-06T01:01:51;20.50;;;12.18;;
77571;SDS011;67214;47.454;18.966;2024-01-06T01:04:19;17.12;;;10.05;;
77571;SDS011;67214;47.454;18.966;2024-01-06T01:06:46;17.90;;;9.53;;
77571;SDS011;67214;47.454;18.966;2024-01-06T01:09:14;17.87;;;10.13;;
77571;SDS011;67214;47.454;18.966;2024-01-06T01:11:41;20.20;;;11.53;;
77571;SDS011;67214;47.454;18.966;2024-01-06T01:14:09;19.60;;;11.70;;
77571;SDS011;67214;47.454;18.966;2024-01-06T01:16:36;17.70;;;10.88;;
77571;SDS011;67214;47.454;18.966;2024-01-06T01:19:03;19.60;;;11.20;;
77571;SDS011;67214;47.454;18.966;2024-01-06T01:21:31;17.07;;;11.80;;
77571;SDS011;67214;47.454;18.966;2024-01-06T01:23:58;29.12;;;12.40;;
77571;SDS011;67214;47.454;18.966;2024-01-06T01:26:26;21.73;;;11.83;;
77571;SDS011;67214;47.454;18.966;2024-01-06T01:28:53;18.75;;;10.53;;
77571;SDS011;67214;47.454;18.966;2024-01-06T01:31:21;20.52;;;11.80;;
77571;SDS011;67214;47.454;18.966;2024-01-06T01:33:50;24.57;;;14.23;;
77571;SDS011;67214;47.454;18.966;2024-01-06T01:36:17;20.15;;;11.97;;
77571;SDS011;67214;47.454;18.966;2024-01-06T01:38:45;17.05;;;10.53;;
77571;SDS011;67214;47.454;18.966;2024-01-06T01:41:12;16.95;;;11.60;;
77571;SDS011;67214;47.454;18.966;2024-01-06T01:43:40;20.20;;;11.38;;
77571;SDS011;67214;47.454;18.966;2024-01-06T01:46:07;15.75;;;10.28;;
77571;SDS011;67214;47.454;18.966;2024-01-06T01:48:35;17.35;;;10.68;;
77571;SDS011;67214;47.454;18.966;2024-01-06T01:51:02;18.12;;;11.30;;
77571;SDS011;67214;47.454;18.966;2024-01-06T01:53:30;17.00;;;10.70;;
77571;SDS011;67214;47.454;18.966;2024-01-06T01:55:58;19.57;;;12.13;;
77571;SDS011;67214;47.454;18.966;2024-01-06T01:58:26;15.88;;;10.82;;
77571;SDS011;67214;47.454;18.966;2024-01-06T02:00:54;16.70;;;10.95;;
77571;SDS011;67214;47.454;18.966;2024-01-06T02:03:21;18.02;;;11.45;;
77571;SDS011;67214;47.454;18.966;2024-01-06T02:05:50;16.90;;;10.78;;
77571;SDS011;67214;47.454;18.966;2024-01-06T02:08:18;20.37;;;12.93;;
77571;SDS011;67214;47.454;18.966;2024-01-06T02:10:45;16.20;;;10.50;;
77571;SDS011;67214;47.454;18.966;2024-01-06T02:13:13;17.85;;;11.22;;
77571;SDS011;67214;47.454;18.966;2024-01-06T02:15:41;17.37;;;10.40;;
77571;SDS011;67214;47.454;18.966;2024-01-06T02:18:08;16.60;;;10.45;;
77571;SDS011;67214;47.454;18.966;2024-01-06T02:20:36;14.63;;;9.58;;
77571;SDS011;67214;47.454;18.966;2024-01-06T02:23:05;18.23;;;10.90;;
77571;SDS011;67214;47.454;18.966;2024-01-06T02:25:33;16.23;;;9.88;;
77571;SDS011;67214;47.454;18.966;2024-01-06T02:28:01;14.90;;;10.03;;
77571;SDS011;67214;47.454;18.966;2024-01-06T02:30:28;17.90;;;11.05;;
77571;SDS011;67214;47.454;18.966;2024-01-06T02:32:56;17.32;;;10.08;;
77571;SDS011;67214;47.454;18.966;2024-01-06T02:35:23;16.23;;;10.68;;
77571;SDS011;67214;47.454;18.966;2024-01-06T02:37:51;14.28;;;9.90;;
77571;SDS011;67214;47.454;18.966;2024-01-06T02:40:18;19.10;;;10.98;;
77571;SDS011;67214;47.454;18.966;2024-01-06T02:42:45;19.40;;;10.70;;
77571;SDS011;67214;47.454;18.966;2024-01-06T02:45:13;17.55;;;10.35;;
77571;SDS011;67214;47.454;18.966;2024-01-06T02:47:40;18.40;;;10.65;;
77571;SDS011;67214;47.454;18.966;2024-01-06T02:50:08;21.97;;;11.85;;
77571;SDS011;67214;47.454;18.966;2024-01-06T02:52:35;18.48;;;11.75;;
77571;SDS011;67214;47.454;18.966;2024-01-06T02:55:03;20.15;;;11.85;;
77571;SDS011;67214;47.454;18.966;2024-01-06T02:57:31;18.57;;;12.13;;
77571;SDS011;67214;47.454;18.966;2024-01-06T02:59:58;19.87;;;11.08;;
77571;SDS011;67214;47.454;18.966;2024-01-06T03:02:26;17.70;;;10.60;;
77571;SDS011;67214;47.454;18.966;2024-01-06T03:04:54;19.10;;;11.60;;
77571;SDS011;67214;47.454;18.966;2024-01-06T03:07:22;20.08;;;10.28;;
77571;SDS011;67214;47.454;18.966;2024-01-06T03:09:49;19.80;;;11.38;;
77571;SDS011;67214;47.454;18.966;2024-01-06T03:12:16;18.70;;;11.60;;
77571;SDS011;67214;47.454;18.966;2024-01-06T03:14:44;16.20;;;10.60;;
77571;SDS011;67214;47.454;18.966;2024-01-06T03:17:11;16.77;;;10.65;;
77571;SDS011;67214;47.454;18.966;2024-01-06T03:19:39;19.45;;;11.93;;
77571;SDS011;67214;47.454;18.966;2024-01-06T03:22:06;17.32;;;10.72;;
77571;SDS011;67214;47.454;18.966;2024-01-06T03:24:34;15.80;;;11.12;;
77571;SDS011;67214;47.454;18.966;2024-01-06T03:27:01;18.32;;;11.57;;
77571;SDS011;67214;47.454;18.966;2024-01-06T03:29:29;18.17;;;11.45;;
77571;SDS011;67214;47.454;18.966;2024-01-06T03:31:56;17.05;;;11.33;;
77571;SDS011;67214;47.454;18.966;2024-01-06T03:34:23;16.95;;;11.45;;
77571;SDS011;67214;47.454;18.966;2024-01-06T03:36:51;17.17;;;11.30;;
77571;SDS011;67214;47.454;18.966;2024-01-06T03:39:18;21.02;;;13.45;;
77571;SDS011;67214;47.454;18.966;2024-01-06T03:41:46;21.90;;;11.78;;
77571;SDS011;67214;47.454;18.966;2024-01-06T03:44:14;22.50;;;11.88;;
77571;SDS011;67214;47.454;18.966;2024-01-06T03:46:42;21.90;;;12.03;;
77571;SDS011;67214;47.454;18.966;2024-01-06T03:49:09;17.75;;;10.10;;
77571;SDS011;67214;47.454;18.966;2024-01-06T03:51:37;19.60;;;10.50;;
77571;SDS011;67214;47.454;18.966;2024-01-06T03:54:04;20.50;;;11.65;;
77571;SDS011;67214;47.454;18.966;2024-01-06T03:56:32;14.80;;;10.20;;
77571;SDS011;67214;47.454;18.966;2024-01-06T03:58:59;17.00;;;11.15;;
77571;SDS011;67214;47.454;18.966;2024-01-06T04:01:26;18.10;;;11.35;;
77571;SDS011;67214;47.454;18.966;2024-01-06T04:03:54;20.70;;;12.75;;
77571;SDS011;67214;47.454;18.966;2024-01-06T04:06:22;19.57;;;11.88;;
77571;SDS011;67214;47.454;18.966;2024-01-06T04:08:49;19.98;;;13.15;;
77571;SDS011;67214;47.454;18.966;2024-01-06T04:11:18;17.48;;;12.55;;
77571;SDS011;67214;47.454;18.966;2024-01-06T04:13:46;17.57;;;12.03;;
77571;SDS011;67214;47.454;18.966;2024-01-06T04:16:13;22.52;;;13.45;;
77571;SDS011;67214;47.454;18.966;2024-01-06T04:18:41;22.45;;;12.58;;
77571;SDS011;67214;47.454;18.966;2024-01-06T04:21:08;22.10;;;12.60;;
77571;SDS011;67214;47.454;18.966;2024-01-06T04:23:36;19.70;;;12.58;;
77571;SDS011;67214;47.454;18.966;2024-01-06T04:26:04;21.60;;;13.28;;
77571;SDS011;67214;47.454;18.966;2024-01-06T04:28:32;18.55;;;11.55;;
77571;SDS011;67214;47.454;18.966;2024-01-06T04:30:59;19.80;;;13.32;;
77571;SDS011;67214;47.454;18.966;2024-01-06T04:33:27;21.00;;;13.03;;
77571;SDS011;67214;47.454;18.966;2024-01-06T04:35:54;17.48;;;12.00;;
77571;SDS011;67214;47.454;18.966;2024-01-06T04:38:23;21.68;;;12.58;;
77571;SDS011;67214;47.454;18.966;2024-01-06T04:40:50;20.08;;;13.08;;
77571;SDS011;67214;47.454;18.966;2024-01-06T04:43:18;19.85;;;12.75;;
77571;SDS011;67214;47.454;18.966;2024-01-06T04:45:45;18.52;;;12.33;;
77571;SDS011;67214;47.454;18.966;2024-01-06T04:48:13;18.17;;;11.35;;
77571;SDS011;67214;47.454;18.966;2024-01-06T04:50:40;25.12;;;12.23;;
77571;SDS011;67214;47.454;18.966;2024-01-06T04:53:07;18.73;;;12.63;;
77571;SDS011;67214;47.454;18.966;2024-01-06T04:55:35;20.57;;;12.23;;
77571;SDS011;67214;47.454;18.966;2024-01-06T04:58:02;19.73;;;12.13;;
77571;SDS011;67214;47.454;18.966;2024-01-06T05:00:30;19.40;;;11.90;;
77571;SDS011;67214;47.454;18.966;2024-01-06T05:02:57;16.45;;;11.45;;
77571;SDS011;67214;47.454;18.966;2024-01-06T05:05:25;21.15;;;11.75;;
77571;SDS011;67214;47.454;18.966;2024-01-06T05:07:53;19.50;;;11.65;;
77571;SDS011;67214;47.454;18.966;2024-01-06T05:10:20;19.87;;;11.90;;
77571;SDS011;67214;47.454;18.966;2024-01-06T05:12:48;18.02;;;11.55;;
77571;SDS011;67214;47.454;18.966;2024-01-06T05:15:15;18.17;;;12.28;;
77571;SDS011;67214;47.454;18.966;2024-01-06T05:17:43;20.43;;;10.93;;
77571;SDS011;67214;47.454;18.966;2024-01-06T05:20:10;18.27;;;11.20;;
77571;SDS011;67214;47.454;18.966;2024-01-06T05:22:38;16.48;;;10.53;;
77571;SDS011;67214;47.454;18.966;2024-01-06T05:25:05;20.62;;;11.90;;
77571;SDS011;67214;47.454;18.966;2024-01-06T05:27:33;21.80;;;12.78;;
77571;SDS011;67214;47.454;18.966;2024-01-06T05:30:01;17.05;;;11.45;;
77571;SDS011;67214;47.454;18.966;2024-01-06T05:32:28;20.52;;;11.90;;
77571;SDS011;67214;47.454;18.966;2024-01-06T05:34:56;22.07;;;13.45;;
77571;SDS011;67214;47.454;18.966;2024-01-06T05:37:23;18.40;;;11.30;;
77571;SDS011;67214;47.454;18.966;2024-01-06T05:39:50;22.02;;;12.05;;
77571;SDS011;67214;47.454;18.966;2024-01-06T05:42:18;18.92;;;12.55;;
77571;SDS011;67214;47.454;18.966;2024-01-06T05:44:45;19.10;;;13.40;;
77571;SDS011;67214;47.454;18.966;2024-01-06T05:47:13;23.00;;;13.45;;
77571;SDS011;67214;47.454;18.966;2024-01-06T05:49:43;21.57;;;12.78;;
77571;SDS011;67214;47.454;18.966;2024-01-06T05:52:10;23.62;;;12.55;;
77571;SDS011;67214;47.454;18.966;2024-01-06T05:54:41;21.97;;;13.45;;
77571;SDS011;67214;47.454;18.966;2024-01-06T05:57:08;20.70;;;13.22;;
77571;SDS011;67214;47.454;18.966;2024-01-06T05:59:37;21.90;;;14.35;;
77571;SDS011;67214;47.454;18.966;2024-01-06T06:02:06;19.25;;;12.85;;
77571;SDS011;67214;47.454;18.966;2024-01-06T06:04:33;22.93;;;13.03;;
77571;SDS011;67214;47.454;18.966;2024-01-06T06:07:01;22.98;;;13.32;;
77571;SDS011;67214;47.454;18.966;2024-01-06T06:09:29;20.50;;;12.53;;
77571;SDS011;67214;47.454;18.966;2024-01-06T06:11:56;24.30;;;13.90;;
77571;SDS011;67214;47.454;18.966;2024-01-06T06:14:24;20.02;;;13.55;;
77571;SDS011;67214;47.454;18.966;2024-01-06T06:16:52;23.02;;;14.93;;
77571;SDS011;67214;47.454;18.966;2024-01-06T06:19:19;23.87;;;14.63;;
77571;SDS011;67214;47.454;18.966;2024-01-06T06:21:47;22.00;;;14.18;;
77571;SDS011;67214;47.454;18.966;2024-01-06T06:24:14;20.82;;;13.58;;
77571;SDS011;67214;47.454;18.966;2024-01-06T06:26:41;19.48;;;13.25;;
77571;SDS011;67214;47.454;18.966;2024-01-06T06:29:09;23.32;;;13.68;;
77571;SDS011;67214;47.454;18.966;2024-01-06T06:31:36;20.23;;;13.08;;
77571;SDS011;67214;47.454;18.966;2024-01-06T06:34:04;19.15;;;13.25;;
77571;SDS011;67214;47.454;18.966;2024-01-06T06:36:31;19.30;;;12.68;;
77571;SDS011;67214;47.454;18.966;2024-01-06T06:38:59;18.40;;;12.45;;
77571;SDS011;67214;47.454;18.966;2024-01-06T06:41:26;20.57;;;11.80;;
77571;SDS011;67214;47.454;18.966;2024-01-06T06:43:54;20.17;;;13.50;;
77571;SDS011;67214;47.454;18.966;2024-01-06T06:46:21;19.35;;;12.33;;
77571;SDS011;67214;47.454;18.966;2024-01-06T06:48:49;19.48;;;11.60;;
77571;SDS011;67214;47.454;18.966;2024-01-06T06:51:16;19.40;;;12.40;;
77571;SDS011;67214;47.454;18.966;2024-01-06T06:53:43;19.32;;;11.80;;
77571;SDS011;67214;47.454;18.966;2024-01-06T06:56:11;22.13;;;12.53;;
77571;SDS011;67214;47.454;18.966;2024-01-06T06:58:40;18.00;;;12.40;;
77571;SDS011;67214;47.454;18.966;2024-01-06T07:01:07;23.25;;;12.40;;
77571;SDS011;67214;47.454;18.966;2024-01-06T07:03:35;18.87;;;13.13;;
77571;SDS011;67214;47.454;18.966;2024-01-06T07:06:03;18.60;;;12.43;;
77571;SDS011;67214;47.454;18.966;2024-01-06T07:08:31;19.20;;;13.13;;
77571;SDS011;67214;47.454;18.966;2024-01-06T07:10:58;21.07;;;13.05;;
77571;SDS011;67214;47.454;18.966;2024-01-06T07:13:26;22.20;;;13.55;;
77571;SDS011;67214;47.454;18.966;2024-01-06T07:15:53;18.98;;;11.78;;
77571;SDS011;67214;47.454;18.966;2024-01-06T07:18:21;21.70;;;14.58;;
77571;SDS011;67214;47.454;18.966;2024-01-06T07:20:50;21.85;;;12.88;;
77571;SDS011;67214;47.454;18.966;2024-01-06T07:23:17;22.17;;;12.93;;
77571;SDS011;67214;47.454;18.966;2024-01-06T07:25:45;20.15;;;12.70;;
77571;SDS011;67214;47.454;18.966;2024-01-06T07:28:12;18.70;;;13.08;;
77571;SDS011;67214;47.454;18.966;2024-01-06T07:30:40;21.15;;;14.33;;
77571;SDS011;67214;47.454;18.966;2024-01-06T07:33:07;20.10;;;13.48;;
77571;SDS011;67214;47.454;18.966;2024-01-06T07:35:35;21.90;;;12.98;;
77571;SDS011;67214;47.454;18.966;2024-01-06T07:38:02;20.52;;;12.40;;
77571;SDS011;67214;47.454;18.966;2024-01-06T07:40:30;20.25;;;12.95;;
77571;SDS011;67214;47.454;18.966;2024-01-06T07:42:57;21.57;;;13.45;;
77571;SDS011;67214;47.454;18.966;2024-01-06T07:45:24;22.85;;;13.72;;
77571;SDS011;67214;47.454;18.966;2024-01-06T07:47:52;25.20;;;13.90;;
77571;SDS011;67214;47.454;18.966;2024-01-06T07:50:19;21.85;;;13.80;;
77571;SDS011;67214;47.454;18.966;2024-01-06T07:52:47;18.50;;;12.07;;
77571;SDS011;67214;47.454;18.966;2024-01-06T07:55:14;17.98;;;12.60;;
77571;SDS011;67214;47.454;18.966;2024-01-06T07:57:42;18.62;;;11.88;;
77571;SDS011;67214;47.454;18.966;2024-01-06T08:00:10;20.85;;;13.22;;
77571;SDS011;67214;47.454;18.966;2024-01-06T08:02:41;22.40;;;12.50;;
77571;SDS011;67214;47.454;18.966;2024-01-06T08:05:09;21.62;;;12.95;;
77571;SDS011;67214;47.454;18.966;2024-01-06T08:07:36;22.85;;;12.90;;
77571;SDS011;67214;47.454;18.966;2024-01-06T08:10:04;20.65;;;12.28;;
77571;SDS011;67214;47.454;18.966;2024-01-06T08:12:34;25.27;;;13.80;;
77571;SDS011;67214;47.454;18.966;2024-01-06T08:15:01;23.70;;;13.95;;
77571;SDS011;67214;47.454;18.966;2024-01-06T08:17:30;30.23;;;14.87;;
77571;SDS011;67214;47.454;18.966;2024-01-06T08:19:57;27.37;;;13.13;;
77571;SDS011;67214;47.454;18.966;2024-01-06T08:22:25;19.42;;;12.40;;
77571;SDS011;67214;47.454;18.966;2024-01-06T08:24:52;23.32;;;13.32;;
77571;SDS011;67214;47.454;18.966;2024-01-06T08:27:20;19.80;;;12.23;;
77571;SDS011;67214;47.454;18.966;2024-01-06T08:29:49;16.95;;;11.70;;
77571;SDS011;67214;47.454;18.966;2024-01-06T08:32:16;23.75;;;13.93;;
77571;SDS011;67214;47.454;18.966;2024-01-06T08:34:44;24.25;;;13.70;;
77571;SDS011;67214;47.454;18.966;2024-01-06T08:37:11;19.77;;;13.22;;
77571;SDS011;67214;47.454;18.966;2024-01-06T08:39:39;21.57;;;14.53;;
77571;SDS011;67214;47.454;18.966;2024-01-06T08:42:07;19.95;;;12.47;;
77571;SDS011;67214;47.454;18.966;2024-01-06T08:44:34;20.80;;;13.58;;
77571;SDS011;67214;47.454;18.966;2024-01-06T08:47:02;13.93;;;10.60;;
77571;SDS011;67214;47.454;18.966;2024-01-06T08:49:29;17.95;;;12.30;;
77571;SDS011;67214;47.454;18.966;2024-01-06T08:51:57;19.12;;;11.75;;
77571;SDS011;67214;47.454;18.966;2024-01-06T08:54:25;21.93;;;12.45;;
77571;SDS011;67214;47.454;18.966;2024-01-06T08:56:52;19.35;;;11.30;;
77571;SDS011;67214;47.454;18.966;2024-01-06T08:59:20;16.48;;;11.22;;
77571;SDS011;67214;47.454;18.966;2024-01-06T09:01:47;17.82;;;11.75;;
77571;SDS011;67214;47.454;18.966;2024-01-06T09:04:14;16.75;;;11.50;;
77571;SDS011;67214;47.454;18.966;2024-01-06T09:06:42;17.95;;;11.63;;
77571;SDS011;67214;47.454;18.966;2024-01-06T09:09:10;19.82;;;11.12;;
77571;SDS011;67214;47.454;18.966;2024-01-06T09:11:39;18.02;;;11.18;;
77571;SDS011;67214;47.454;18.966;2024-01-06T09:14:07;19.95;;;12.10;;
77571;SDS011;67214;47.454;18.966;2024-01-06T09:16:36;17.70;;;11.88;;
77571;SDS011;67214;47.454;18.966;2024-01-06T09:19:03;19.20;;;11.05;;
77571;SDS011;67214;47.454;18.966;2024-01-06T09:21:31;23.95;;;12.63;;
77571;SDS011;67214;47.454;18.966;2024-01-06T09:23:58;19.25;;;11.33;;
77571;SDS011;67214;47.454;18.966;2024-01-06T09:26:27;18.20;;;11.97;;
77571;SDS011;67214;47.454;18.966;2024-01-06T09:28:55;21.20;;;12.75;;
77571;SDS011;67214;47.454;18.966;2024-01-06T09:31:22;15.80;;;10.65;;
77571;SDS011;67214;47.454;18.966;2024-01-06T09:33:50;17.95;;;11.68;;
77571;SDS011;67214;47.454;18.966;2024-01-06T09:36:17;16.65;;;11.33;;
77571;SDS011;67214;47.454;18.966;2024-01-06T09:38:44;18.92;;;11.03;;
77571;SDS011;67214;47.454;18.966;2024-01-06T09:41:12;17.15;;;10.55;;
77571;SDS011;67214;47.454;18.966;2024-01-06T09:43:39;16.65;;;11.83;;
77571;SDS011;67214;47.454;18.966;2024-01-06T09:46:25;19.32;;;10.82;;
77571;SDS011;67214;47.454;18.966;2024-01-06T09:48:56;14.30;;;9.40;;
77571;SDS011;67214;47.454;18.966;2024-01-06T09:51:24;16.05;;;10.58;;
77571;SDS011;67214;47.454;18.966;2024-01-06T09:53:59;15.98;;;9.45;;
77571;SDS011;67214;47.454;18.966;2024-01-06T09:56:28;15.40;;;9.40;;
77571;SDS011;67214;47.454;18.966;2024-01-06T09:58:56;15.93;;;9.83;;
77571;SDS011;67214;47.454;18.966;2024-01-06T10:01:24;16.90;;;10.60;;
77571;SDS011;67214;47.454;18.966;2024-01-06T10:03:51;16.65;;;9.03;;
77571;SDS011;67214;47.454;18.966;2024-01-06T10:06:19;17.30;;;10.05;;
77571;SDS011;67214;47.454;18.966;2024-01-06T10:08:50;23.35;;;10.68;;
77571;SDS011;67214;47.454;18.966;2024-01-06T10:11:19;14.93;;;9.98;;
77571;SDS011;67214;47.454;18.966;2024-01-06T10:13:50;18.32;;;11.08;;
77571;SDS011;67214;47.454;18.966;2024-01-06T10:16:18;19.40;;;9.40;;
77571;SDS011;67214;47.454;18.966;2024-01-06T10:18:46;14.07;;;9.93;;
77571;SDS011;67214;47.454;18.966;2024-01-06T10:21:13;14.70;;;9.93;;
77571;SDS011;67214;47.454;18.966;2024-01-06T10:23:43;19.95;;;10.78;;
77571;SDS011;67214;47.454;18.966;2024-01-06T10:26:19;17.25;;;10.48;;
77571;SDS011;67214;47.454;18.966;2024-01-06T10:28:44;16.73;;;10.65;;
77571;SDS011;67214;47.454;18.966;2024-01-06T10:31:13;18.02;;;10.35;;
77571;SDS011;67214;47.454;18.966;2024-01-06T10:33:41;20.68;;;11.57;;
77571;SDS011;67214;47.454;18.966;2024-01-06T10:36:09;18.92;;;11.25;;
77571;SDS011;67214;47.454;18.966;2024-01-06T10:38:36;19.70;;;10.90;;
77571;SDS011;67214;47.454;18.966;2024-01-06T10:41:04;16.62;;;9.78;;
77571;SDS011;67214;47.454;18.966;2024-01-06T10:43:35;16.27;;;9.85;;
77571;SDS011;67214;47.454;18.966;2024-01-06T10:46:05;17.37;;;10.40;;
77571;SDS011;67214;47.454;18.966;2024-01-06T10:48:35;18.98;;;11.40;;
77571;SDS011;67214;47.454;18.966;2024-01-06T10:51:06;13.20;;;9.45;;
77571;SDS011;67214;47.454;18.966;2024-01-06T10:53:34;14.10;;;9.45;;
77571;SDS011;67214;47.454;18.966;2024-01-06T10:56:03;15.80;;;10.35;;
77571;SDS011;67214;47.454;18.966;2024-01-06T10:58:34;17.50;;;10.68;;
77571;SDS011;67214;47.454;18.966;2024-01-06T11:01:09;13.38;;;10.50;;
77571;SDS011;67214;47.454;18.966;2024-01-06T11:03:38;16.87;;;10.13;;
77571;SDS011;67214;47.454;18.966;2024-01-06T11:06:06;18.02;;;10.65;;
77571;SDS011;67214;47.454;18.966;2024-01-06T11:08:39;13.03;;;8.90;;
77571;SDS011;67214;47.454;18.966;2024-01-06T11:11:10;17.82;;;11.08;;
77571;SDS011;67214;47.454;18.966;2024-01-06T11:13:38;18.40;;;11.15;;
77571;SDS011;67214;47.454;18.966;2024-01-06T11:16:06;16.40;;;10.75;;
77571;SDS011;67214;47.454;18.966;2024-01-06T11:18:37;16.80;;;11.28;;
77571;SDS011;67214;47.454;18.966;2024-01-06T11:24:10;19.40;;;10.08;;
77571;SDS011;67214;47.454;18.966;2024-01-06T11:26:38;16.52;;;11.05;;
77571;SDS011;67214;47.454;18.966;2024-01-06T11:29:10;18.15;;;11.63;;
77571;SDS011;67214;47.454;18.966;2024-01-06T11:31:38;14.68;;;10.90;;
77571;SDS011;67214;47.454;18.966;2024-01-06T11:34:12;18.73;;;11.90;;
77571;SDS011;67214;47.454;18.966;2024-01-06T11:36:45;18.77;;;13.00;;
77571;SDS011;67214;47.454;18.966;2024-01-06T11:42:05;21.45;;;10.10;;
77571;SDS011;67214;47.454;18.966;2024-01-06T11:44:37;17.55;;;11.45;;
77571;SDS011;67214;47.454;18.966;2024-01-06T11:47:03;18.15;;;11.03;;
77571;SDS011;67214;47.454;18.966;2024-01-06T11:49:32;17.87;;;11.40;;
77571;SDS011;67214;47.454;18.966;2024-01-06T11:51:59;15.80;;;10.85;;
77571;SDS011;67214;47.454;18.966;2024-01-06T11:54:27;18.37;;;12.58;;
77571;SDS011;67214;47.454;18.966;2024-01-06T11:56:54;15.18;;;10.30;;
77571;SDS011;67214;47.454;18.966;2024-01-06T11:59:23;21.95;;;13.50;;
77571;SDS011;67214;47.454;18.966;2024-01-06T12:01:50;15.65;;;10.68;;
77571;SDS011;67214;47.454;18.966;2024-01-06T12:04:18;16.20;;;11.40;;
77571;SDS011;67214;47.454;18.966;2024-01-06T12:06:47;19.23;;;11.75;;
77571;SDS011;67214;47.454;18.966;2024-01-06T12:09:14;17.80;;;11.10;;
77571;SDS011;67214;47.454;18.966;2024-01-06T12:11:44;17.42;;;11.25;;
77571;SDS011;67214;47.454;18.966;2024-01-06T12:14:12;22.22;;;13.83;;
77571;SDS011;67214;47.454;18.966;2024-01-06T12:16:41;17.62;;;11.55;;
77571;SDS011;67214;47.454;18.966;2024-01-06T12:19:09;22.42;;;13.18;;
77571;SDS011;67214;47.454;18.966;2024-01-06T12:21:37;18.12;;;12.85;;
77571;SDS011;67214;47.454;18.966;2024-01-06T12:24:17;18.85;;;13.72;;
77571;SDS011;67214;47.454;18.966;2024-01-06T12:26:46;21.10;;;12.95;;
77571;SDS011;67214;47.454;18.966;2024-01-06T12:29:14;20.85;;;13.93;;
77571;SDS011;67214;47.454;18.966;2024-01-06T12:31:43;19.95;;;13.35;;
77571;SDS011;67214;47.454;18.966;2024-01-06T12:34:11;20.45;;;13.40;;
77571;SDS011;67214;47.454;18.966;2024-01-06T12:36:38;21.27;;;13.85;;
77571;SDS011;67214;47.454;18.966;2024-01-06T12:39:12;22.75;;;15.72;;
77571;SDS011;67214;47.454;18.966;2024-01-06T12:41:43;22.10;;;13.28;;
77571;SDS011;67214;47.454;18.966;2024-01-06T12:44:10;22.65;;;14.18;;
77571;SDS011;67214;47.454;18.966;2024-01-06T12:46:38;20.82;;;13.95;;
77571;SDS011;67214;47.454;18.966;2024-01-06T12:49:06;20.82;;;14.25;;
77571;SDS011;67214;47.454;18.966;2024-01-06T12:51:33;24.40;;;16.45;;
77571;SDS011;67214;47.454;18.966;2024-01-06T12:54:00;23.02;;;14.80;;
77571;SDS011;67214;47.454;18.966;2024-01-06T12:56:28;19.35;;;13.48;;
77571;SDS011;67214;47.454;18.966;2024-01-06T12:58:56;22.13;;;14.03;;
77571;SDS011;67214;47.454;18.966;2024-01-06T13:01:23;23.18;;;15.72;;
77571;SDS011;67214;47.454;18.966;2024-01-06T13:03:50;23.85;;;14.85;;
77571;SDS011;67214;47.454;18.966;2024-01-06T13:06:19;20.55;;;14.45;;
77571;SDS011;67214;47.454;18.966;2024-01-06T13:08:47;21.35;;;12.30;;
77571;SDS011;67214;47.454;18.966;2024-01-06T13:11:15;21.00;;;13.90;;
77571;SDS011;67214;47.454;18.966;2024-01-06T13:13:43;20.97;;;14.58;;
77571;SDS011;67214;47.454;18.966;2024-01-06T13:16:11;17.85;;;12.82;;
77571;SDS011;67214;47.454;18.966;2024-01-06T13:18:38;18.95;;;14.43;;
77571;SDS011;67214;47.454;18.966;2024-01-06T13:21:07;21.95;;;13.98;;
77571;SDS011;67214;47.454;18.966;2024-01-06T13:23:34;18.80;;;13.13;;
77571;SDS011;67214;47.454;18.966;2024-01-06T13:26:01;18.05;;;12.03;;
77571;SDS011;67214;47.454;18.966;2024-01-06T13:28:29;18.17;;;12.85;;
77571;SDS011;67214;47.454;18.966;2024-01-06T13:30:56;17.27;;;12.00;;
77571;SDS011;67214;47.454;18.966;2024-01-06T13:33:24;19.25;;;11.88;;
77571;SDS011;67214;47.454;18.966;2024-01-06T13:35:51;17.15;;;12.70;;
77571;SDS011;67214;47.454;18.966;2024-01-06T13:38:19;14.73;;;10.82;;
77571;SDS011;67214;47.454;18.966;2024-01-06T13:40:47;17.55;;;11.83;;
77571;SDS011;67214;47.454;18.966;2024-01-06T13:43:15;18.40;;;11.83;;
77571;SDS011;67214;47.454;18.966;2024-01-06T13:45:42;17.67;;;12.60;;
77571;SDS011;67214;47.454;18.966;2024-01-06T13:48:10;17.85;;;11.70;;
77571;SDS011;67214;47.454;18.966;2024-01-06T13:50:38;17.25;;;11.55;;
77571;SDS011;67214;47.454;18.966;2024-01-06T13:53:05;16.50;;;10.93;;
77571;SDS011;67214;47.454;18.966;2024-01-06T13:55:33;15.40;;;10.72;;
77571;SDS011;67214;47.454;18.966;2024-01-06T13:58:01;12.18;;;9.03;;
77571;SDS011;67214;47.454;18.966;2024-01-06T14:00:28;15.75;;;10.25;;
77571;SDS011;67214;47.454;18.966;2024-01-06T14:02:55;15.80;;;11.08;;
77571;SDS011;67214;47.454;18.966;2024-01-06T14:05:23;12.93;;;9.73;;
77571;SDS011;67214;47.454;18.966;2024-01-06T14:07:51;13.45;;;8.60;;
77571;SDS011;67214;47.454;18.966;2024-01-06T14:10:19;12.63;;;8.78;;
77571;SDS011;67214;47.454;18.966;2024-01-06T14:12:47;12.05;;;8.40;;
77571;SDS011;67214;47.454;18.966;2024-01-06T14:15:14;10.15;;;7.35;;
77571;SDS011;67214;47.454;18.966;2024-01-06T14:17:42;10.53;;;7.95;;
77571;SDS011;67214;47.454;18.966;2024-01-06T14:20:11;10.10;;;7.12;;